sensor_id;sensor_type;location;lat;lon;timestamp;temperature;humidity
3298;DHT22;1661;53.572;10.174;2023-03-14T00:00:53;12.50;82.70
3298;DHT22;1661;53.572;10.174;2023-03-14T00:03:20;12.60;82.60
3298;DHT22;1661;53.572;10.174;2023-03-14T00:05:47;12.60;82.60
3298;DHT22;1661;53.572;10.174;2023-03-14T00:08:14;12.60;82.40
3298;DHT22;1661;53.572;10.174;2023-03-14T00:10:41;12.70;82.20
3298;DHT22;1661;53.572;10.174;2023-03-14T00:13:08;12.70;81.90
3298;DHT22;1661;53.572;10.174;2023-03-14T00:15:36;12.60;82.00
3298;DHT22;1661;53.572;10.174;2023-03-14T00:18:03;12.60;82.10
3298;DHT22;1661;53.572;10.174;2023-03-14T00:20:32;12.50;82.00
3298;DHT22;1661;53.572;10.174;2023-03-14T00:23:01;12.50;82.20
3298;DHT22;1661;53.572;10.174;2023-03-14T00:25:28;12.40;82.10
3298;DHT22;1661;53.572;10.174;2023-03-14T00:27:55;12.50;82.20
3298;DHT22;1661;53.572;10.174;2023-03-14T00:30:22;12.40;82.10
3298;DHT22;1661;53.572;10.174;2023-03-14T00:32:50;12.40;82.20
3298;DHT22;1661;53.572;10.174;2023-03-14T00:35:17;12.30;82.30
3298;DHT22;1661;53.572;10.174;2023-03-14T00:37:44;12.30;82.40
3298;DHT22;1661;53.572;10.174;2023-03-14T00:40:11;12.30;82.40
3298;DHT22;1661;53.572;10.174;2023-03-14T00:42:38;12.30;82.50
3298;DHT22;1661;53.572;10.174;2023-03-14T00:45:05;12.30;82.10
3298;DHT22;1661;53.572;10.174;2023-03-14T00:47:33;12.30;82.00
3298;DHT22;1661;53.572;10.174;2023-03-14T00:50:01;12.30;82.20
3298;DHT22;1661;53.572;10.174;2023-03-14T00:52:28;12.30;82.30
3298;DHT22;1661;53.572;10.174;2023-03-14T00:54:54;12.30;82.20
3298;DHT22;1661;53.572;10.174;2023-03-14T00:57:21;12.30;82.10
3298;DHT22;1661;53.572;10.174;2023-03-14T00:59:48;12.30;82.00
3298;DHT22;1661;53.572;10.174;2023-03-14T01:02:15;12.30;82.10
3298;DHT22;1661;53.572;10.174;2023-03-14T01:04:41;12.20;82.40
3298;DHT22;1661;53.572;10.174;2023-03-14T01:07:10;12.20;82.50
3298;DHT22;1661;53.572;10.174;2023-03-14T01:09:37;12.30;82.50
3298;DHT22;1661;53.572;10.174;2023-03-14T01:12:04;12.20;82.70
3298;DHT22;1661;53.572;10.174;2023-03-14T01:14:30;12.20;82.90
3298;DHT22;1661;53.572;10.174;2023-03-14T01:16:57;12.20;82.90
3298;DHT22;1661;53.572;10.174;2023-03-14T01:19:26;12.20;82.80
3298;DHT22;1661;53.572;10.174;2023-03-14T01:21:53;12.20;83.00
3298;DHT22;1661;53.572;10.174;2023-03-14T01:24:21;12.20;83.00
3298;DHT22;1661;53.572;10.174;2023-03-14T01:26:48;12.20;83.00
3298;DHT22;1661;53.572;10.174;2023-03-14T01:29:15;12.20;83.10
3298;DHT22;1661;53.572;10.174;2023-03-14T01:31:42;12.20;83.10
3298;DHT22;1661;53.572;10.174;2023-03-14T01:34:08;12.20;83.00
3298;DHT22;1661;53.572;10.174;2023-03-14T01:36:35;12.20;83.00
3298;DHT22;1661;53.572;10.174;2023-03-14T01:39:02;12.20;83.00
3298;DHT22;1661;53.572;10.174;2023-03-14T01:41:32;12.20;83.00
3298;DHT22;1661;53.572;10.174;2023-03-14T01:44:01;12.10;83.20
3298;DHT22;1661;53.572;10.174;2023-03-14T01:46:32;12.10;83.20
3298;DHT22;1661;53.572;10.174;2023-03-14T01:49:10;12.10;83.30
3298;DHT22;1661;53.572;10.174;2023-03-14T01:51:46;12.10;83.30
3298;DHT22;1661;53.572;10.174;2023-03-14T01:54:24;12.10;83.20
3298;DHT22;1661;53.572;10.174;2023-03-14T01:56:57;12.00;83.30
3298;DHT22;1661;53.572;10.174;2023-03-14T01:59:24;12.00;83.50
3298;DHT22;1661;53.572;10.174;2023-03-14T02:01:55;11.90;83.70
3298;DHT22;1661;53.572;10.174;2023-03-14T02:04:23;11.90;84.10
3298;DHT22;1661;53.572;10.174;2023-03-14T02:06:58;11.90;84.20
3298;DHT22;1661;53.572;10.174;2023-03-14T02:09:25;11.80;84.50
3298;DHT22;1661;53.572;10.174;2023-03-14T02:11:53;11.80;84.50
3298;DHT22;1661;53.572;10.174;2023-03-14T02:14:27;11.80;84.50
3298;DHT22;1661;53.572;10.174;2023-03-14T02:16:55;11.80;84.40
3298;DHT22;1661;53.572;10.174;2023-03-14T02:19:31;11.80;84.50
3298;DHT22;1661;53.572;10.174;2023-03-14T02:22:07;11.80;84.60
3298;DHT22;1661;53.572;10.174;2023-03-14T02:24:41;11.70;84.80
3298;DHT22;1661;53.572;10.174;2023-03-14T02:27:11;11.60;84.90
3298;DHT22;1661;53.572;10.174;2023-03-14T02:29:47;11.60;85.00
3298;DHT22;1661;53.572;10.174;2023-03-14T02:32:17;11.60;84.70
3298;DHT22;1661;53.572;10.174;2023-03-14T02:34:49;11.50;84.90
3298;DHT22;1661;53.572;10.174;2023-03-14T02:37:19;11.50;85.00
3298;DHT22;1661;53.572;10.174;2023-03-14T02:39:47;11.50;84.90
3298;DHT22;1661;53.572;10.174;2023-03-14T02:42:18;11.50;84.80
3298;DHT22;1661;53.572;10.174;2023-03-14T02:44:53;11.50;84.60
3298;DHT22;1661;53.572;10.174;2023-03-14T02:47:29;11.50;84.60
3298;DHT22;1661;53.572;10.174;2023-03-14T02:49:59;11.60;84.40
3298;DHT22;1661;53.572;10.174;2023-03-14T02:52:27;11.60;84.20
3298;DHT22;1661;53.572;10.174;2023-03-14T02:54:56;11.70;84.10
3298;DHT22;1661;53.572;10.174;2023-03-14T02:57:24;11.70;84.00
3298;DHT22;1661;53.572;10.174;2023-03-14T02:59:51;11.60;84.10
3298;DHT22;1661;53.572;10.174;2023-03-14T03:02:18;11.60;84.20
3298;DHT22;1661;53.572;10.174;2023-03-14T03:04:47;11.70;84.00
3298;DHT22;1661;53.572;10.174;2023-03-14T03:07:14;11.60;84.20
3298;DHT22;1661;53.572;10.174;2023-03-14T03:09:40;11.70;84.20
3298;DHT22;1661;53.572;10.174;2023-03-14T03:12:10;11.60;84.30
3298;DHT22;1661;53.572;10.174;2023-03-14T03:14:38;11.60;84.30
3298;DHT22;1661;53.572;10.174;2023-03-14T03:17:05;11.60;84.30
3298;DHT22;1661;53.572;10.174;2023-03-14T03:19:33;11.60;84.30
3298;DHT22;1661;53.572;10.174;2023-03-14T03:22:00;11.60;84.40
3298;DHT22;1661;53.572;10.174;2023-03-14T03:24:27;11.60;84.60
3298;DHT22;1661;53.572;10.174;2023-03-14T03:26:57;11.60;84.50
3298;DHT22;1661;53.572;10.174;2023-03-14T03:29:24;11.60;84.30
3298;DHT22;1661;53.572;10.174;2023-03-14T03:31:53;11.60;84.40
3298;DHT22;1661;53.572;10.174;2023-03-14T03:34:20;11.60;84.50
3298;DHT22;1661;53.572;10.174;2023-03-14T03:36:47;11.50;84.60
3298;DHT22;1661;53.572;10.174;2023-03-14T03:39:14;11.60;84.60
3298;DHT22;1661;53.572;10.174;2023-03-14T03:41:40;11.60;84.50
3298;DHT22;1661;53.572;10.174;2023-03-14T03:44:07;11.60;84.70
3298;DHT22;1661;53.572;10.174;2023-03-14T03:46:37;11.60;84.70
3298;DHT22;1661;53.572;10.174;2023-03-14T03:49:05;11.70;84.40
3298;DHT22;1661;53.572;10.174;2023-03-14T03:51:32;11.70;84.30
3298;DHT22;1661;53.572;10.174;2023-03-14T03:53:59;11.60;84.10
3298;DHT22;1661;53.572;10.174;2023-03-14T03:56:25;11.70;84.40
3298;DHT22;1661;53.572;10.174;2023-03-14T03:58:52;11.70;84.10
3298;DHT22;1661;53.572;10.174;2023-03-14T04:01:19;11.70;84.20
3298;DHT22;1661;53.572;10.174;2023-03-14T04:03:46;11.80;83.90
3298;DHT22;1661;53.572;10.174;2023-03-14T04:06:14;11.70;83.80
3298;DHT22;1661;53.572;10.174;2023-03-14T04:08:41;11.70;84.00
3298;DHT22;1661;53.572;10.174;2023-03-14T04:11:09;11.70;84.00
3298;DHT22;1661;53.572;10.174;2023-03-14T04:13:36;11.70;83.70
3298;DHT22;1661;53.572;10.174;2023-03-14T04:16:03;11.80;83.50
3298;DHT22;1661;53.572;10.174;2023-03-14T04:18:30;11.80;83.30
3298;DHT22;1661;53.572;10.174;2023-03-14T04:20:57;11.70;83.70
3298;DHT22;1661;53.572;10.174;2023-03-14T04:23:25;11.60;83.70
3298;DHT22;1661;53.572;10.174;2023-03-14T04:25:53;11.70;83.60
3298;DHT22;1661;53.572;10.174;2023-03-14T04:28:20;11.70;83.50
3298;DHT22;1661;53.572;10.174;2023-03-14T04:30:47;11.70;83.30
3298;DHT22;1661;53.572;10.174;2023-03-14T04:33:14;11.80;83.30
3298;DHT22;1661;53.572;10.174;2023-03-14T04:35:42;11.70;83.00
3298;DHT22;1661;53.572;10.174;2023-03-14T04:38:12;11.70;83.00
3298;DHT22;1661;53.572;10.174;2023-03-14T04:40:40;11.70;83.00
3298;DHT22;1661;53.572;10.174;2023-03-14T04:43:08;11.70;82.90
3298;DHT22;1661;53.572;10.174;2023-03-14T04:45:35;11.70;82.80
3298;DHT22;1661;53.572;10.174;2023-03-14T04:48:05;11.80;82.70
3298;DHT22;1661;53.572;10.174;2023-03-14T04:50:32;11.80;82.50
3298;DHT22;1661;53.572;10.174;2023-03-14T04:53:01;11.80;82.30
3298;DHT22;1661;53.572;10.174;2023-03-14T04:55:28;11.80;82.30
3298;DHT22;1661;53.572;10.174;2023-03-14T04:57:56;11.80;82.30
3298;DHT22;1661;53.572;10.174;2023-03-14T05:00:23;11.80;81.90
3298;DHT22;1661;53.572;10.174;2023-03-14T05:02:50;11.80;81.80
3298;DHT22;1661;53.572;10.174;2023-03-14T05:05:17;11.70;81.90
3298;DHT22;1661;53.572;10.174;2023-03-14T05:07:44;11.80;81.90
3298;DHT22;1661;53.572;10.174;2023-03-14T05:10:13;11.90;81.80
3298;DHT22;1661;53.572;10.174;2023-03-14T05:12:40;11.80;81.40
3298;DHT22;1661;53.572;10.174;2023-03-14T05:15:09;11.80;81.50
3298;DHT22;1661;53.572;10.174;2023-03-14T05:17:36;11.90;81.30
3298;DHT22;1661;53.572;10.174;2023-03-14T05:20:06;11.90;81.00
3298;DHT22;1661;53.572;10.174;2023-03-14T05:22:35;11.90;81.10
3298;DHT22;1661;53.572;10.174;2023-03-14T05:25:02;11.90;81.30
3298;DHT22;1661;53.572;10.174;2023-03-14T05:27:28;11.80;81.60
3298;DHT22;1661;53.572;10.174;2023-03-14T05:29:55;11.80;82.10
3298;DHT22;1661;53.572;10.174;2023-03-14T05:32:23;11.80;81.80
3298;DHT22;1661;53.572;10.174;2023-03-14T05:34:50;11.80;81.90
3298;DHT22;1661;53.572;10.174;2023-03-14T05:37:17;11.80;81.90
3298;DHT22;1661;53.572;10.174;2023-03-14T05:39:44;11.80;82.10
3298;DHT22;1661;53.572;10.174;2023-03-14T05:42:10;11.80;82.30
3298;DHT22;1661;53.572;10.174;2023-03-14T05:44:37;11.80;82.50
3298;DHT22;1661;53.572;10.174;2023-03-14T05:47:04;11.70;83.20
3298;DHT22;1661;53.572;10.174;2023-03-14T05:49:32;11.70;83.90
3298;DHT22;1661;53.572;10.174;2023-03-14T05:51:59;11.70;84.20
3298;DHT22;1661;53.572;10.174;2023-03-14T05:54:26;11.80;84.50
3298;DHT22;1661;53.572;10.174;2023-03-14T05:56:53;11.80;84.50
3298;DHT22;1661;53.572;10.174;2023-03-14T05:59:19;11.80;84.20
3298;DHT22;1661;53.572;10.174;2023-03-14T06:01:46;11.80;84.40
3298;DHT22;1661;53.572;10.174;2023-03-14T06:04:13;11.80;84.50
3298;DHT22;1661;53.572;10.174;2023-03-14T06:06:44;11.80;84.40
3298;DHT22;1661;53.572;10.174;2023-03-14T06:09:10;11.80;84.40
3298;DHT22;1661;53.572;10.174;2023-03-14T06:11:37;11.80;84.20
3298;DHT22;1661;53.572;10.174;2023-03-14T06:14:04;11.70;84.10
3298;DHT22;1661;53.572;10.174;2023-03-14T06:16:33;11.60;84.50
3298;DHT22;1661;53.572;10.174;2023-03-14T06:19:00;11.60;84.70
3298;DHT22;1661;53.572;10.174;2023-03-14T06:21:27;11.50;85.20
3298;DHT22;1661;53.572;10.174;2023-03-14T06:23:57;11.50;85.00
3298;DHT22;1661;53.572;10.174;2023-03-14T06:26:24;11.40;84.80
3298;DHT22;1661;53.572;10.174;2023-03-14T06:28:51;11.40;85.00
3298;DHT22;1661;53.572;10.174;2023-03-14T06:31:18;11.50;84.90
3298;DHT22;1661;53.572;10.174;2023-03-14T06:33:45;11.40;84.70
3298;DHT22;1661;53.572;10.174;2023-03-14T06:36:12;11.40;84.70
3298;DHT22;1661;53.572;10.174;2023-03-14T06:38:39;11.40;84.30
3298;DHT22;1661;53.572;10.174;2023-03-14T06:41:07;11.30;84.10
3298;DHT22;1661;53.572;10.174;2023-03-14T06:43:34;11.20;83.80
3298;DHT22;1661;53.572;10.174;2023-03-14T06:46:01;11.20;83.70
3298;DHT22;1661;53.572;10.174;2023-03-14T06:48:28;11.20;83.80
3298;DHT22;1661;53.572;10.174;2023-03-14T06:50:54;11.20;83.80
3298;DHT22;1661;53.572;10.174;2023-03-14T06:53:21;11.30;83.50
3298;DHT22;1661;53.572;10.174;2023-03-14T06:55:48;11.30;83.00
3298;DHT22;1661;53.572;10.174;2023-03-14T06:58:16;11.30;82.30
3298;DHT22;1661;53.572;10.174;2023-03-14T07:00:44;11.30;81.90
3298;DHT22;1661;53.572;10.174;2023-03-14T07:03:12;11.30;82.20
3298;DHT22;1661;53.572;10.174;2023-03-14T07:05:39;11.40;81.90
3298;DHT22;1661;53.572;10.174;2023-03-14T07:08:09;11.40;81.20
3298;DHT22;1661;53.572;10.174;2023-03-14T07:10:36;11.30;81.10
3298;DHT22;1661;53.572;10.174;2023-03-14T07:13:03;11.30;81.20
3298;DHT22;1661;53.572;10.174;2023-03-14T07:15:34;11.20;81.30
3298;DHT22;1661;53.572;10.174;2023-03-14T07:18:03;11.30;81.20
3298;DHT22;1661;53.572;10.174;2023-03-14T07:20:30;11.20;81.20
3298;DHT22;1661;53.572;10.174;2023-03-14T07:22:59;11.30;80.90
3298;DHT22;1661;53.572;10.174;2023-03-14T07:25:31;11.40;80.50
3298;DHT22;1661;53.572;10.174;2023-03-14T07:27:58;11.40;80.50
3298;DHT22;1661;53.572;10.174;2023-03-14T07:30:25;11.50;80.70
3298;DHT22;1661;53.572;10.174;2023-03-14T07:32:53;11.60;80.50
3298;DHT22;1661;53.572;10.174;2023-03-14T07:35:20;11.60;80.50
3298;DHT22;1661;53.572;10.174;2023-03-14T07:37:47;11.60;80.80
3298;DHT22;1661;53.572;10.174;2023-03-14T07:40:14;11.60;80.70
3298;DHT22;1661;53.572;10.174;2023-03-14T07:42:41;11.70;80.70
3298;DHT22;1661;53.572;10.174;2023-03-14T07:45:09;11.60;80.40
3298;DHT22;1661;53.572;10.174;2023-03-14T07:47:38;11.60;80.80
3298;DHT22;1661;53.572;10.174;2023-03-14T07:50:07;11.70;80.90
3298;DHT22;1661;53.572;10.174;2023-03-14T07:52:34;11.80;80.50
3298;DHT22;1661;53.572;10.174;2023-03-14T07:55:04;11.80;80.40
3298;DHT22;1661;53.572;10.174;2023-03-14T07:57:32;11.90;79.70
3298;DHT22;1661;53.572;10.174;2023-03-14T07:59:59;11.90;79.40
3298;DHT22;1661;53.572;10.174;2023-03-14T08:02:26;11.90;78.50
3298;DHT22;1661;53.572;10.174;2023-03-14T08:04:53;11.80;78.70
3298;DHT22;1661;53.572;10.174;2023-03-14T08:07:21;11.70;78.70
3298;DHT22;1661;53.572;10.174;2023-03-14T08:09:50;11.70;78.90
3298;DHT22;1661;53.572;10.174;2023-03-14T08:12:17;11.70;79.10
3298;DHT22;1661;53.572;10.174;2023-03-14T08:14:44;11.60;79.00
3298;DHT22;1661;53.572;10.174;2023-03-14T08:17:11;11.70;79.20
3298;DHT22;1661;53.572;10.174;2023-03-14T08:19:41;11.60;79.20
3298;DHT22;1661;53.572;10.174;2023-03-14T08:22:08;11.60;79.40
3298;DHT22;1661;53.572;10.174;2023-03-14T08:24:36;11.60;79.60
3298;DHT22;1661;53.572;10.174;2023-03-14T08:27:06;11.60;79.30
3298;DHT22;1661;53.572;10.174;2023-03-14T08:29:32;11.70;79.60
3298;DHT22;1661;53.572;10.174;2023-03-14T08:31:59;11.70;79.60
3298;DHT22;1661;53.572;10.174;2023-03-14T08:34:26;11.80;79.40
3298;DHT22;1661;53.572;10.174;2023-03-14T08:36:56;11.90;79.20
3298;DHT22;1661;53.572;10.174;2023-03-14T08:39:23;12.00;79.00
3298;DHT22;1661;53.572;10.174;2023-03-14T08:41:51;12.10;78.50
3298;DHT22;1661;53.572;10.174;2023-03-14T08:44:18;12.10;78.80
3298;DHT22;1661;53.572;10.174;2023-03-14T08:46:44;12.10;78.90
3298;DHT22;1661;53.572;10.174;2023-03-14T08:49:11;12.20;78.60
3298;DHT22;1661;53.572;10.174;2023-03-14T08:51:40;12.30;78.60
3298;DHT22;1661;53.572;10.174;2023-03-14T08:54:10;12.30;77.60
3298;DHT22;1661;53.572;10.174;2023-03-14T08:56:37;12.40;77.90
3298;DHT22;1661;53.572;10.174;2023-03-14T08:59:06;12.50;77.40
3298;DHT22;1661;53.572;10.174;2023-03-14T09:01:33;12.50;77.40
3298;DHT22;1661;53.572;10.174;2023-03-14T09:04:00;12.50;77.40
3298;DHT22;1661;53.572;10.174;2023-03-14T09:06:27;12.50;77.50
3298;DHT22;1661;53.572;10.174;2023-03-14T09:08:54;12.50;77.70
3298;DHT22;1661;53.572;10.174;2023-03-14T09:11:21;12.50;77.70
3298;DHT22;1661;53.572;10.174;2023-03-14T09:13:50;12.50;78.10
3298;DHT22;1661;53.572;10.174;2023-03-14T09:16:18;12.40;79.10
3298;DHT22;1661;53.572;10.174;2023-03-14T09:18:48;12.20;79.70
3298;DHT22;1661;53.572;10.174;2023-03-14T09:21:15;12.20;80.60
3298;DHT22;1661;53.572;10.174;2023-03-14T09:23:42;12.30;81.10
3298;DHT22;1661;53.572;10.174;2023-03-14T09:26:11;12.30;80.40
3298;DHT22;1661;53.572;10.174;2023-03-14T09:28:37;12.20;80.30
3298;DHT22;1661;53.572;10.174;2023-03-14T09:31:08;12.20;79.90
3298;DHT22;1661;53.572;10.174;2023-03-14T09:33:38;12.20;79.40
3298;DHT22;1661;53.572;10.174;2023-03-14T09:36:06;12.20;79.70
3298;DHT22;1661;53.572;10.174;2023-03-14T09:38:33;12.10;79.60
3298;DHT22;1661;53.572;10.174;2023-03-14T09:41:01;12.10;80.30
3298;DHT22;1661;53.572;10.174;2023-03-14T09:43:31;12.20;80.30
3298;DHT22;1661;53.572;10.174;2023-03-14T09:45:59;12.20;80.60
3298;DHT22;1661;53.572;10.174;2023-03-14T09:48:30;12.20;80.60
3298;DHT22;1661;53.572;10.174;2023-03-14T09:51:11;12.20;80.60
3298;DHT22;1661;53.572;10.174;2023-03-14T09:53:40;12.10;80.60
3298;DHT22;1661;53.572;10.174;2023-03-14T09:56:12;12.10;81.30
3298;DHT22;1661;53.572;10.174;2023-03-14T09:58:41;12.10;83.00
3298;DHT22;1661;53.572;10.174;2023-03-14T10:01:11;12.10;83.90
3298;DHT22;1661;53.572;10.174;2023-03-14T10:03:42;12.10;83.70
3298;DHT22;1661;53.572;10.174;2023-03-14T10:06:12;12.10;84.10
3298;DHT22;1661;53.572;10.174;2023-03-14T10:08:40;11.80;84.30
3298;DHT22;1661;53.572;10.174;2023-03-14T10:11:15;11.80;84.70
3298;DHT22;1661;53.572;10.174;2023-03-14T10:13:50;11.60;84.70
3298;DHT22;1661;53.572;10.174;2023-03-14T10:16:29;11.00;83.10
3298;DHT22;1661;53.572;10.174;2023-03-14T10:19:03;10.50;84.50
3298;DHT22;1661;53.572;10.174;2023-03-14T10:21:36;10.50;85.90
3298;DHT22;1661;53.572;10.174;2023-03-14T10:24:26;10.40;86.40
3298;DHT22;1661;53.572;10.174;2023-03-14T10:26:54;10.30;85.40
3298;DHT22;1661;53.572;10.174;2023-03-14T10:29:23;10.20;86.10
3298;DHT22;1661;53.572;10.174;2023-03-14T10:31:53;10.10;86.00
3298;DHT22;1661;53.572;10.174;2023-03-14T10:34:23;10.00;87.70
3298;DHT22;1661;53.572;10.174;2023-03-14T10:36:59;9.70;86.70
3298;DHT22;1661;53.572;10.174;2023-03-14T10:39:45;9.50;86.90
3298;DHT22;1661;53.572;10.174;2023-03-14T10:42:18;8.70;87.50
3298;DHT22;1661;53.572;10.174;2023-03-14T10:44:47;8.70;89.20
3298;DHT22;1661;53.572;10.174;2023-03-14T10:47:21;8.70;89.20
3298;DHT22;1661;53.572;10.174;2023-03-14T10:49:48;8.60;89.20
3298;DHT22;1661;53.572;10.174;2023-03-14T10:52:25;8.40;90.20
3298;DHT22;1661;53.572;10.174;2023-03-14T10:54:56;8.20;87.90
3298;DHT22;1661;53.572;10.174;2023-03-14T10:57:24;7.80;87.60
3298;DHT22;1661;53.572;10.174;2023-03-14T10:59:55;7.30;88.60
3298;DHT22;1661;53.572;10.174;2023-03-14T11:02:45;6.70;89.50
3298;DHT22;1661;53.572;10.174;2023-03-14T11:05:25;6.60;89.70
3298;DHT22;1661;53.572;10.174;2023-03-14T11:08:01;6.30;89.90
3298;DHT22;1661;53.572;10.174;2023-03-14T11:10:32;6.00;90.30
3298;DHT22;1661;53.572;10.174;2023-03-14T11:13:13;5.80;91.00
3298;DHT22;1661;53.572;10.174;2023-03-14T11:15:47;5.80;91.70
3298;DHT22;1661;53.572;10.174;2023-03-14T11:21:25;5.90;90.60
3298;DHT22;1661;53.572;10.174;2023-03-14T11:24:06;5.80;89.30
3298;DHT22;1661;53.572;10.174;2023-03-14T11:26:40;5.70;89.50
3298;DHT22;1661;53.572;10.174;2023-03-14T11:29:16;5.70;89.30
3298;DHT22;1661;53.572;10.174;2023-03-14T11:31:46;5.80;90.20
3298;DHT22;1661;53.572;10.174;2023-03-14T11:34:16;5.80;90.00
3298;DHT22;1661;53.572;10.174;2023-03-14T11:36:48;5.90;90.20
3298;DHT22;1661;53.572;10.174;2023-03-14T11:39:20;5.90;89.50
3298;DHT22;1661;53.572;10.174;2023-03-14T11:41:50;5.90;89.90
3298;DHT22;1661;53.572;10.174;2023-03-14T11:44:19;5.80;88.60
3298;DHT22;1661;53.572;10.174;2023-03-14T11:46:50;5.70;88.00
3298;DHT22;1661;53.572;10.174;2023-03-14T11:49:26;5.50;89.10
3298;DHT22;1661;53.572;10.174;2023-03-14T11:51:57;5.50;90.00
3298;DHT22;1661;53.572;10.174;2023-03-14T11:54:33;5.60;90.20
3298;DHT22;1661;53.572;10.174;2023-03-14T11:57:05;5.70;88.20
3298;DHT22;1661;53.572;10.174;2023-03-14T11:59:46;5.50;85.20
3298;DHT22;1661;53.572;10.174;2023-03-14T12:02:20;5.60;87.40
3298;DHT22;1661;53.572;10.174;2023-03-14T12:04:54;5.80;87.10
3298;DHT22;1661;53.572;10.174;2023-03-14T12:07:29;5.90;85.80
3298;DHT22;1661;53.572;10.174;2023-03-14T12:10:02;6.00;85.30
3298;DHT22;1661;53.572;10.174;2023-03-14T12:12:30;6.00;84.90
3298;DHT22;1661;53.572;10.174;2023-03-14T12:15:03;6.10;83.30
3298;DHT22;1661;53.572;10.174;2023-03-14T12:17:35;6.10;83.40
3298;DHT22;1661;53.572;10.174;2023-03-14T12:20:06;6.20;82.90
3298;DHT22;1661;53.572;10.174;2023-03-14T12:22:42;6.30;83.20
3298;DHT22;1661;53.572;10.174;2023-03-14T12:25:16;6.30;78.10
3298;DHT22;1661;53.572;10.174;2023-03-14T12:28:02;6.20;79.70
3298;DHT22;1661;53.572;10.174;2023-03-14T12:30:31;6.00;79.00
3298;DHT22;1661;53.572;10.174;2023-03-14T12:33:34;6.10;82.40
3298;DHT22;1661;53.572;10.174;2023-03-14T12:36:17;6.20;82.10
3298;DHT22;1661;53.572;10.174;2023-03-14T12:38:52;6.20;80.40
3298;DHT22;1661;53.572;10.174;2023-03-14T12:41:27;6.30;80.60
3298;DHT22;1661;53.572;10.174;2023-03-14T12:43:55;6.30;79.20
3298;DHT22;1661;53.572;10.174;2023-03-14T12:46:24;6.40;83.50
3298;DHT22;1661;53.572;10.174;2023-03-14T12:48:56;6.50;81.10
3298;DHT22;1661;53.572;10.174;2023-03-14T12:51:34;6.40;78.60
3298;DHT22;1661;53.572;10.174;2023-03-14T12:54:15;6.40;82.60
3298;DHT22;1661;53.572;10.174;2023-03-14T12:57:04;6.60;81.90
3298;DHT22;1661;53.572;10.174;2023-03-14T12:59:34;6.60;79.90
3298;DHT22;1661;53.572;10.174;2023-03-14T13:02:29;6.70;79.10
3298;DHT22;1661;53.572;10.174;2023-03-14T13:05:05;6.80;84.20
3298;DHT22;1661;53.572;10.174;2023-03-14T13:08:04;6.70;79.10
3298;DHT22;1661;53.572;10.174;2023-03-14T13:10:39;6.70;78.50
3298;DHT22;1661;53.572;10.174;2023-03-14T13:13:17;6.50;77.80
3298;DHT22;1661;53.572;10.174;2023-03-14T13:15:47;6.60;78.30
3298;DHT22;1661;53.572;10.174;2023-03-14T13:18:18;6.70;80.60
3298;DHT22;1661;53.572;10.174;2023-03-14T13:20:49;6.90;82.60
3298;DHT22;1661;53.572;10.174;2023-03-14T13:23:22;7.10;82.30
3298;DHT22;1661;53.572;10.174;2023-03-14T13:25:53;7.00;82.30
3298;DHT22;1661;53.572;10.174;2023-03-14T13:28:22;7.00;81.30
3298;DHT22;1661;53.572;10.174;2023-03-14T13:31:00;7.00;81.50
3298;DHT22;1661;53.572;10.174;2023-03-14T13:33:27;7.00;79.40
3298;DHT22;1661;53.572;10.174;2023-03-14T13:36:01;7.10;81.50
3298;DHT22;1661;53.572;10.174;2023-03-14T13:38:31;7.20;81.90
3298;DHT22;1661;53.572;10.174;2023-03-14T13:41:04;7.20;79.00
3298;DHT22;1661;53.572;10.174;2023-03-14T13:43:39;7.20;79.10
3298;DHT22;1661;53.572;10.174;2023-03-14T13:46:14;7.30;77.50
3298;DHT22;1661;53.572;10.174;2023-03-14T13:48:44;7.30;71.90
3298;DHT22;1661;53.572;10.174;2023-03-14T13:51:13;7.30;72.80
3298;DHT22;1661;53.572;10.174;2023-03-14T13:53:44;7.20;68.30
3298;DHT22;1661;53.572;10.174;2023-03-14T13:56:11;7.10;68.10
3298;DHT22;1661;53.572;10.174;2023-03-14T13:58:40;7.30;68.50
3298;DHT22;1661;53.572;10.174;2023-03-14T14:01:13;7.30;68.20
3298;DHT22;1661;53.572;10.174;2023-03-14T14:03:45;7.20;60.30
3298;DHT22;1661;53.572;10.174;2023-03-14T14:06:22;7.30;61.70
3298;DHT22;1661;53.572;10.174;2023-03-14T14:08:49;7.20;63.60
3298;DHT22;1661;53.572;10.174;2023-03-14T14:11:22;7.10;63.30
3298;DHT22;1661;53.572;10.174;2023-03-14T14:13:55;7.10;62.40
3298;DHT22;1661;53.572;10.174;2023-03-14T14:16:24;6.90;64.30
3298;DHT22;1661;53.572;10.174;2023-03-14T14:18:53;6.80;61.10
3298;DHT22;1661;53.572;10.174;2023-03-14T14:21:22;6.70;62.70
3298;DHT22;1661;53.572;10.174;2023-03-14T14:23:49;6.80;66.20
3298;DHT22;1661;53.572;10.174;2023-03-14T14:26:19;6.70;61.00
3298;DHT22;1661;53.572;10.174;2023-03-14T14:28:46;6.80;67.80
3298;DHT22;1661;53.572;10.174;2023-03-14T14:31:21;6.80;70.70
3298;DHT22;1661;53.572;10.174;2023-03-14T14:33:54;7.00;70.70
3298;DHT22;1661;53.572;10.174;2023-03-14T14:36:23;7.20;69.40
3298;DHT22;1661;53.572;10.174;2023-03-14T14:38:52;7.20;67.80
3298;DHT22;1661;53.572;10.174;2023-03-14T14:41:19;7.20;67.40
3298;DHT22;1661;53.572;10.174;2023-03-14T14:43:46;7.40;68.50
3298;DHT22;1661;53.572;10.174;2023-03-14T14:46:18;7.60;66.90
3298;DHT22;1661;53.572;10.174;2023-03-14T14:48:57;7.70;65.00
3298;DHT22;1661;53.572;10.174;2023-03-14T14:51:32;7.60;64.10
3298;DHT22;1661;53.572;10.174;2023-03-14T14:54:09;7.60;62.60
3298;DHT22;1661;53.572;10.174;2023-03-14T14:56:37;7.40;61.60
3298;DHT22;1661;53.572;10.174;2023-03-14T14:59:05;7.60;70.00
3298;DHT22;1661;53.572;10.174;2023-03-14T15:01:34;7.50;65.90
3298;DHT22;1661;53.572;10.174;2023-03-14T15:04:10;7.50;62.10
3298;DHT22;1661;53.572;10.174;2023-03-14T15:06:40;7.60;60.70
3298;DHT22;1661;53.572;10.174;2023-03-14T15:09:10;7.50;60.70
3298;DHT22;1661;53.572;10.174;2023-03-14T15:11:37;7.40;59.20
3298;DHT22;1661;53.572;10.174;2023-03-14T15:14:07;7.20;57.90
3298;DHT22;1661;53.572;10.174;2023-03-14T15:16:34;7.10;58.40
3298;DHT22;1661;53.572;10.174;2023-03-14T15:19:02;7.00;58.80
3298;DHT22;1661;53.572;10.174;2023-03-14T15:21:34;6.80;60.90
3298;DHT22;1661;53.572;10.174;2023-03-14T15:24:04;6.60;58.40
3298;DHT22;1661;53.572;10.174;2023-03-14T15:26:31;6.70;67.60
3298;DHT22;1661;53.572;10.174;2023-03-14T15:28:58;6.60;62.10
3298;DHT22;1661;53.572;10.174;2023-03-14T15:31:24;6.80;67.30
3298;DHT22;1661;53.572;10.174;2023-03-14T15:33:51;6.90;60.40
3298;DHT22;1661;53.572;10.174;2023-03-14T15:36:22;7.10;70.30
3298;DHT22;1661;53.572;10.174;2023-03-14T15:38:51;7.20;61.50
3298;DHT22;1661;53.572;10.174;2023-03-14T15:41:19;7.40;67.20
3298;DHT22;1661;53.572;10.174;2023-03-14T15:43:46;7.50;60.70
3298;DHT22;1661;53.572;10.174;2023-03-14T15:46:13;7.50;64.80
3298;DHT22;1661;53.572;10.174;2023-03-14T15:48:43;7.40;60.90
3298;DHT22;1661;53.572;10.174;2023-03-14T15:51:17;7.30;63.50
3298;DHT22;1661;53.572;10.174;2023-03-14T15:53:44;7.30;62.70
3298;DHT22;1661;53.572;10.174;2023-03-14T15:56:14;7.10;61.90
3298;DHT22;1661;53.572;10.174;2023-03-14T15:58:41;7.10;58.70
3298;DHT22;1661;53.572;10.174;2023-03-14T16:01:12;6.90;57.90
3298;DHT22;1661;53.572;10.174;2023-03-14T16:03:39;6.90;60.20
3298;DHT22;1661;53.572;10.174;2023-03-14T16:06:06;6.90;62.30
3298;DHT22;1661;53.572;10.174;2023-03-14T16:08:35;6.90;65.70
3298;DHT22;1661;53.572;10.174;2023-03-14T16:11:02;6.90;62.60